createdAt,value
2023-03-19T00:00:36.950Z,87.40
2023-03-19T00:05:39.142Z,88.60
2023-03-19T00:10:42.700Z,88.30
2023-03-19T00:15:44.831Z,88.60
2023-03-19T00:20:46.951Z,86.90
2023-03-19T00:25:50.909Z,86.50
2023-03-19T00:30:53.067Z,86.00
2023-03-19T00:35:55.261Z,86.00
2023-03-19T00:40:58.782Z,86.10
2023-03-19T00:46:01.725Z,86.20
2023-03-19T00:51:04.840Z,85.90
2023-03-19T00:56:09.129Z,85.70
2023-03-19T01:01:14.266Z,85.70
2023-03-19T01:06:16.520Z,85.80
2023-03-19T01:11:20.059Z,85.70
2023-03-19T01:16:22.103Z,85.60
2023-03-19T01:21:24.248Z,85.30
2023-03-19T01:26:27.924Z,85.40
2023-03-19T01:31:30.262Z,85.50
2023-03-19T01:36:32.791Z,85.50
2023-03-19T01:41:36.360Z,85.30
2023-03-19T01:46:39.729Z,85.10
2023-03-19T01:51:45.548Z,85.10
2023-03-19T01:56:53.038Z,85.20
2023-03-19T02:01:59.370Z,85.20
2023-03-19T02:07:03.917Z,85.00
2023-03-19T02:12:09.161Z,84.90
2023-03-19T02:17:11.613Z,85.30
2023-03-19T02:22:15.097Z,85.10
2023-03-19T02:27:18.691Z,84.90
2023-03-19T02:32:20.798Z,85.00
2023-03-19T02:37:26.644Z,84.80
2023-03-19T02:42:30.361Z,85.20
2023-03-19T02:47:32.527Z,84.90
2023-03-19T02:52:35.088Z,84.60
2023-03-19T02:57:38.869Z,85.00
2023-03-19T03:02:41.067Z,84.90
2023-03-19T03:07:43.253Z,85.10
2023-03-19T03:12:46.828Z,85.00
2023-03-19T03:17:48.877Z,85.30
2023-03-19T03:22:51.021Z,85.20
2023-03-19T03:27:54.584Z,85.20
2023-03-19T03:32:56.793Z,85.30
2023-03-19T03:37:58.934Z,85.50
2023-03-19T03:43:02.694Z,85.40
2023-03-19T03:48:05.197Z,85.40
2023-03-19T03:53:07.786Z,85.30
2023-03-19T03:58:11.267Z,85.30
2023-03-19T04:03:13.670Z,85.70
2023-03-19T04:08:15.841Z,85.70
2023-03-19T04:13:19.383Z,85.50
2023-03-19T04:18:21.542Z,85.40
2023-03-19T04:23:23.798Z,85.20
2023-03-19T04:28:27.469Z,85.30
2023-03-19T04:33:30.446Z,85.50
2023-03-19T04:38:32.552Z,85.60
2023-03-19T04:43:36.157Z,85.40
2023-03-19T04:48:38.292Z,85.50
2023-03-19T04:53:40.675Z,85.30
2023-03-19T04:58:44.532Z,85.50
2023-03-19T05:03:46.746Z,85.50
2023-03-19T05:08:48.912Z,85.60
2023-03-19T05:13:52.522Z,85.40
2023-03-19T05:18:54.576Z,85.40
2023-03-19T05:23:56.695Z,85.60
2023-03-19T05:29:00.264Z,85.40
2023-03-19T05:34:02.558Z,85.60
2023-03-19T05:39:04.850Z,85.70
2023-03-19T05:44:08.408Z,86.00
2023-03-19T05:49:10.565Z,86.10
2023-03-19T05:54:12.745Z,86.10
2023-03-19T05:59:16.380Z,86.20
2023-03-19T06:04:18.621Z,86.20
2023-03-19T06:09:21.067Z,86.10
2023-03-19T06:14:25.054Z,86.30
2023-03-19T06:19:27.223Z,86.40
2023-03-19T06:24:29.311Z,86.30
2023-03-19T06:29:32.908Z,86.30
2023-03-19T06:34:35.055Z,86.30
2023-03-19T06:39:37.684Z,86.30
2023-03-19T06:44:41.346Z,86.50
2023-03-19T06:49:43.515Z,86.50
2023-03-19T06:54:45.585Z,86.40
2023-03-19T06:59:49.094Z,86.20
2023-03-19T07:04:51.180Z,86.00
2023-03-19T07:09:53.416Z,86.10
2023-03-19T07:14:56.995Z,86.10
2023-03-19T07:19:59.177Z,86.20
2023-03-19T07:25:01.354Z,85.90
2023-03-19T07:30:05.548Z,85.90
2023-03-19T07:35:08.884Z,86.00
2023-03-19T07:40:11.908Z,85.80
2023-03-19T07:45:15.545Z,85.80
2023-03-19T07:50:17.987Z,86.00
2023-03-19T07:55:20.182Z,85.90
2023-03-19T08:00:24.113Z,85.30
2023-03-19T08:05:26.302Z,84.80
2023-03-19T08:10:28.519Z,84.50
2023-03-19T08:15:32.148Z,84.20
2023-03-19T08:20:34.479Z,83.70
2023-03-19T08:25:36.898Z,83.50
2023-03-19T08:30:40.515Z,83.10
2023-03-19T08:35:42.924Z,83.20
2023-03-19T08:40:45.137Z,83.50
2023-03-19T08:45:49.553Z,83.70
2023-03-19T08:50:54.061Z,83.50
2023-03-19T08:55:57.827Z,83.80
2023-03-19T09:01:05.597Z,84.40
2023-03-19T09:06:10.141Z,84.90
2023-03-19T09:11:13.292Z,84.30
2023-03-19T09:16:19.355Z,83.60
2023-03-19T09:21:22.617Z,83.50
2023-03-19T09:26:24.890Z,83.80
2023-03-19T09:31:29.750Z,82.90
2023-03-19T09:36:32.575Z,82.60
2023-03-19T09:41:45.781Z,82.10
2023-03-19T09:46:53.700Z,81.30
2023-03-19T09:51:58.893Z,80.80
2023-03-19T09:57:01.920Z,80.30
2023-03-19T10:02:32.071Z,80.50
2023-03-19T10:07:58.000Z,80.50
2023-03-19T10:13:13.036Z,80.30
2023-03-19T10:18:21.009Z,80.00
2023-03-19T10:23:40.093Z,79.80
2023-03-19T10:28:44.374Z,79.60
2023-03-19T10:33:54.784Z,79.60
2023-03-19T10:38:56.887Z,79.60
2023-03-19T10:44:02.438Z,79.10
2023-03-19T10:49:11.291Z,78.30
2023-03-19T10:54:22.365Z,77.90
2023-03-19T10:59:26.969Z,77.70
2023-03-19T11:04:30.540Z,77.00
2023-03-19T11:09:37.114Z,76.60
2023-03-19T11:14:44.183Z,75.00
2023-03-19T11:20:05.893Z,75.20
2023-03-19T11:25:17.125Z,75.70
2023-03-19T11:30:22.994Z,74.30
2023-03-19T11:35:32.039Z,73.80
2023-03-19T11:40:43.688Z,73.70
2023-03-19T11:45:56.010Z,73.40
2023-03-19T11:51:08.212Z,72.10
2023-03-19T11:56:45.449Z,71.70
2023-03-19T12:02:15.142Z,70.10
2023-03-19T12:07:26.243Z,69.70
2023-03-19T12:12:36.664Z,68.30
2023-03-19T12:17:53.526Z,68.30
2023-03-19T12:23:05.863Z,68.70
2023-03-19T12:28:16.834Z,70.10
2023-03-19T12:33:33.833Z,70.40
2023-03-19T12:38:40.583Z,71.30
2023-03-19T12:43:54.220Z,73.10
2023-03-19T12:49:01.012Z,71.10
2023-03-19T12:54:10.366Z,69.90
2023-03-19T12:59:20.589Z,68.90
2023-03-19T13:04:27.425Z,69.60
2023-03-19T13:09:37.068Z,69.40
2023-03-19T13:14:49.533Z,69.90
2023-03-19T13:19:53.053Z,68.10
2023-03-19T13:24:59.115Z,68.10
2023-03-19T13:30:08.568Z,67.80
2023-03-19T13:35:36.137Z,67.10
2023-03-19T13:40:49.223Z,66.60
2023-03-19T13:46:03.496Z,67.60
2023-03-19T13:51:22.657Z,67.50
2023-03-19T13:56:30.349Z,67.90
2023-03-19T14:01:41.299Z,67.70
2023-03-19T14:06:47.337Z,66.60
2023-03-19T14:11:50.936Z,67.10
2023-03-19T14:16:54.969Z,67.50
2023-03-19T14:22:10.911Z,67.80
2023-03-19T14:27:20.753Z,66.60
2023-03-19T14:32:31.992Z,67.00
2023-03-19T14:37:46.357Z,66.80
2023-03-19T14:43:00.987Z,66.70
2023-03-19T14:48:29.228Z,66.60
2023-03-19T14:53:39.202Z,66.70
2023-03-19T14:58:54.378Z,66.70
2023-03-19T15:04:00.049Z,65.60
2023-03-19T15:09:02.706Z,66.10
2023-03-19T15:14:24.679Z,65.70
2023-03-19T15:19:29.877Z,65.00
2023-03-19T15:24:32.042Z,65.90
2023-03-19T15:29:37.844Z,66.00
2023-03-19T15:34:40.668Z,65.80
2023-03-19T15:39:48.053Z,66.50
2023-03-19T15:44:52.794Z,65.80
2023-03-19T15:49:59.621Z,66.80
2023-03-19T15:55:03.486Z,67.00
2023-03-19T16:00:10.222Z,67.40
2023-03-19T16:05:24.557Z,68.00
2023-03-19T16:10:36.960Z,68.20
2023-03-19T16:15:44.962Z,68.50
2023-03-19T16:20:57.486Z,68.70
2023-03-19T16:26:12.070Z,68.80
2023-03-19T16:31:24.765Z,69.40
2023-03-19T16:36:31.023Z,69.60
2023-03-19T16:41:33.904Z,69.60
2023-03-19T16:46:40.493Z,69.70
2023-03-19T16:51:42.712Z,69.90
2023-03-19T16:56:44.915Z,70.00
2023-03-19T17:01:48.478Z,70.20
2023-03-19T17:06:50.847Z,70.60
2023-03-19T17:11:53.610Z,70.90
2023-03-19T17:16:57.418Z,71.20
2023-03-19T17:21:59.812Z,71.60
2023-03-19T17:27:03.658Z,71.60
2023-03-19T17:32:16.528Z,71.90
2023-03-19T17:37:18.678Z,72.60
2023-03-19T17:42:22.972Z,72.60
2023-03-19T17:47:26.581Z,73.00
2023-03-19T17:52:29.587Z,73.20
2023-03-19T17:57:31.688Z,73.30
2023-03-19T18:02:35.557Z,73.50
2023-03-19T18:07:37.640Z,73.90
2023-03-19T18:12:39.735Z,74.10
2023-03-19T18:17:48.132Z,74.30
2023-03-19T18:22:50.797Z,74.70
2023-03-19T18:27:53.276Z,74.60
2023-03-19T18:32:59.563Z,74.80
2023-03-19T18:38:01.787Z,75.00
2023-03-19T18:43:04.189Z,74.90
2023-03-19T18:48:23.994Z,75.00
2023-03-19T18:53:26.264Z,75.20
2023-03-19T18:58:29.224Z,75.10
2023-03-19T19:03:34.065Z,75.20
2023-03-19T19:08:36.284Z,75.40
2023-03-19T19:13:53.410Z,75.20
2023-03-19T19:18:59.174Z,75.20
2023-03-19T19:24:01.277Z,75.20
2023-03-19T19:29:04.576Z,75.50
2023-03-19T19:34:10.832Z,75.40
2023-03-19T19:39:13.780Z,75.60
2023-03-19T19:44:19.130Z,75.60
2023-03-19T19:49:22.920Z,75.70
2023-03-19T19:54:25.135Z,75.90
2023-03-19T19:59:27.344Z,75.90
2023-03-19T20:04:30.884Z,76.00
2023-03-19T20:09:34.214Z,76.20
2023-03-19T20:14:45.282Z,76.50
2023-03-19T20:19:51.439Z,76.50
2023-03-19T20:24:53.962Z,76.70
2023-03-19T20:29:56.312Z,76.70
2023-03-19T20:35:00.560Z,76.80
2023-03-19T20:40:02.713Z,77.00
2023-03-19T20:45:05.963Z,76.90
2023-03-19T20:50:17.118Z,77.30
2023-03-19T20:55:21.194Z,77.70
2023-03-19T21:00:26.294Z,77.30
2023-03-19T21:05:35.232Z,77.30
2023-03-19T21:10:39.845Z,77.50
2023-03-19T21:15:42.795Z,77.50
2023-03-19T21:20:49.934Z,77.60
2023-03-19T21:25:52.713Z,78.00
2023-03-19T21:30:54.850Z,78.00
2023-03-19T21:35:59.646Z,78.10
2023-03-19T21:41:05.160Z,78.20
2023-03-19T21:46:23.291Z,78.20
2023-03-19T21:51:28.828Z,78.30
2023-03-19T21:56:34.690Z,78.60
2023-03-19T22:01:36.787Z,78.80
2023-03-19T22:06:40.377Z,78.80
2023-03-19T22:11:43.711Z,78.80
2023-03-19T22:16:46.582Z,79.10
2023-03-19T22:21:50.235Z,79.10
2023-03-19T22:26:57.504Z,79.00
2023-03-19T22:31:59.423Z,79.40
2023-03-19T22:37:22.163Z,79.10
2023-03-19T22:42:25.818Z,79.20
2023-03-19T22:47:28.018Z,79.00
2023-03-19T22:52:31.503Z,79.20
2023-03-19T22:57:33.585Z,79.40
2023-03-19T23:02:35.667Z,79.40
2023-03-19T23:07:39.203Z,79.60
2023-03-19T23:12:41.285Z,79.80
2023-03-19T23:17:44.565Z,79.90
2023-03-19T23:22:48.621Z,80.10
2023-03-19T23:27:51.133Z,80.20
2023-03-19T23:32:53.362Z,80.20
2023-03-19T23:37:57.367Z,80.30
2023-03-19T23:43:00.686Z,80.40
2023-03-19T23:48:05.711Z,80.30
2023-03-19T23:53:18.043Z,80.30
2023-03-19T23:58:20.676Z,80.60
